sensor_id;sensor_type;location;lat;lon;timestamp;pressure;altitude;pressure_sealevel;temperature;humidity
46081;BME280;31821;51.880;-0.518;2022-12-16T00:00:27;100671.16;;;-3.39;57.04
46081;BME280;31821;51.880;-0.518;2022-12-16T00:02:52;100633.41;;;-3.33;55.96
46081;BME280;31821;51.880;-0.518;2022-12-16T00:05:18;100585.94;;;-3.74;56.68
46081;BME280;31821;51.880;-0.518;2022-12-16T00:07:45;100594.84;;;-3.53;55.88
46081;BME280;31821;51.880;-0.518;2022-12-16T00:10:11;100638.41;;;-3.43;55.81
46081;BME280;31821;51.880;-0.518;2022-12-16T00:12:36;100604.81;;;-3.54;56.17
46081;BME280;31821;51.880;-0.518;2022-12-16T00:15:02;100662.63;;;-3.09;55.59
46081;BME280;31821;51.880;-0.518;2022-12-16T00:17:28;100642.94;;;-3.23;55.59
46081;BME280;31821;51.880;-0.518;2022-12-16T00:19:53;100638.00;;;-3.33;55.68
46081;BME280;31821;51.880;-0.518;2022-12-16T00:22:19;100578.06;;;-3.76;56.42
46081;BME280;31821;51.880;-0.518;2022-12-16T00:24:44;100649.19;;;-3.23;55.92
46081;BME280;31821;51.880;-0.518;2022-12-16T00:27:10;100628.44;;;-3.29;55.61
46081;BME280;31821;51.880;-0.518;2022-12-16T00:29:36;100616.00;;;-3.44;56.00
46081;BME280;31821;51.880;-0.518;2022-12-16T00:32:01;100654.34;;;-3.21;56.14
46081;BME280;31821;51.880;-0.518;2022-12-16T00:34:27;100555.25;;;-3.80;55.92
46081;BME280;31821;51.880;-0.518;2022-12-16T00:36:52;100623.66;;;-3.40;55.79
46081;BME280;31821;51.880;-0.518;2022-12-16T00:39:18;100650.38;;;-4.13;56.42
46081;BME280;31821;51.880;-0.518;2022-12-16T00:41:43;100662.25;;;-4.49;59.83
46081;BME280;31821;51.880;-0.518;2022-12-16T00:44:12;100654.34;;;-3.95;58.82
46081;BME280;31821;51.880;-0.518;2022-12-16T00:46:37;100595.03;;;-4.09;57.52
46081;BME280;31821;51.880;-0.518;2022-12-16T00:49:04;100664.72;;;-3.45;57.38
46081;BME280;31821;51.880;-0.518;2022-12-16T00:51:30;100593.19;;;-3.88;56.81
46081;BME280;31821;51.880;-0.518;2022-12-16T00:53:55;100631.75;;;-3.74;56.68
46081;BME280;31821;51.880;-0.518;2022-12-16T00:56:21;100600.25;;;-3.87;57.07
46081;BME280;31821;51.880;-0.518;2022-12-16T00:58:46;100609.16;;;-3.80;56.81
46081;BME280;31821;51.880;-0.518;2022-12-16T01:01:12;100651.28;;;-3.52;56.89
46081;BME280;31821;51.880;-0.518;2022-12-16T01:03:38;100617.47;;;-3.68;56.67
46081;BME280;31821;51.880;-0.518;2022-12-16T01:06:15;100655.19;;;-3.61;57.01
46081;BME280;31821;51.880;-0.518;2022-12-16T01:08:41;100656.84;;;-3.60;57.00
46081;BME280;31821;51.880;-0.518;2022-12-16T01:11:14;100654.38;;;-3.55;56.12
46081;BME280;31821;51.880;-0.518;2022-12-16T01:13:40;100595.28;;;-3.83;56.37
46081;BME280;31821;51.880;-0.518;2022-12-16T01:16:06;100571.41;;;-4.13;56.14
46081;BME280;31821;51.880;-0.518;2022-12-16T01:18:31;100574.53;;;-4.23;56.83
46081;BME280;31821;51.880;-0.518;2022-12-16T01:21:08;100586.34;;;-4.04;56.86
46081;BME280;31821;51.880;-0.518;2022-12-16T01:23:35;100609.16;;;-3.80;56.25
46081;BME280;31821;51.880;-0.518;2022-12-16T01:26:01;100614.13;;;-3.83;56.70
46081;BME280;31821;51.880;-0.518;2022-12-16T01:28:27;100637.78;;;-3.65;56.56
46081;BME280;31821;51.880;-0.518;2022-12-16T01:30:57;100656.25;;;-3.49;55.91
46081;BME280;31821;51.880;-0.518;2022-12-16T01:33:27;100612.28;;;-3.69;56.02
46081;BME280;31821;51.880;-0.518;2022-12-16T01:36:04;100658.13;;;-3.36;55.76
46081;BME280;31821;51.880;-0.518;2022-12-16T01:38:31;100621.00;;;-3.61;55.67
46081;BME280;31821;51.880;-0.518;2022-12-16T01:40:56;100676.34;;;-3.24;55.77
46081;BME280;31821;51.880;-0.518;2022-12-16T01:43:27;100620.97;;;-3.67;55.18
46081;BME280;31821;51.880;-0.518;2022-12-16T01:46:04;100661.63;;;-3.35;55.79
46081;BME280;31821;51.880;-0.518;2022-12-16T01:48:40;100682.16;;;-3.14;55.52
46081;BME280;31821;51.880;-0.518;2022-12-16T01:51:31;100650.63;;;-3.34;55.29
46081;BME280;31821;51.880;-0.518;2022-12-16T01:56:30;100647.94;;;-3.34;55.29
46081;BME280;31821;51.880;-0.518;2022-12-16T01:58:58;100679.03;;;-3.24;56.20
46081;BME280;31821;51.880;-0.518;2022-12-16T02:01:24;100726.16;;;-3.07;57.39
46081;BME280;31821;51.880;-0.518;2022-12-16T02:03:51;100731.75;;;-3.35;58.50
46081;BME280;31821;51.880;-0.518;2022-12-16T02:06:18;100680.50;;;-3.62;59.17
46081;BME280;31821;51.880;-0.518;2022-12-16T02:08:44;100728.44;;;-3.17;59.06
46081;BME280;31821;51.880;-0.518;2022-12-16T02:16:51;100676.16;;;-3.56;60.09
46081;BME280;31821;51.880;-0.518;2022-12-16T02:25:11;100740.25;;;-2.71;58.95
46081;BME280;31821;51.880;-0.518;2022-12-16T02:28:01;100711.19;;;-2.83;58.69
46081;BME280;31821;51.880;-0.518;2022-12-16T02:34:01;100715.94;;;-2.64;58.64
46081;BME280;31821;51.880;-0.518;2022-12-16T02:38:56;100713.84;;;-2.69;58.88
46081;BME280;31821;51.880;-0.518;2022-12-16T02:44:16;100682.78;;;-2.99;58.00
46081;BME280;31821;51.880;-0.518;2022-12-16T02:46:51;100734.63;;;-2.63;57.91
46081;BME280;31821;51.880;-0.518;2022-12-16T02:51:46;100744.59;;;-2.70;58.41
46081;BME280;31821;51.880;-0.518;2022-12-16T02:54:11;100583.25;;;-3.54;58.08
46081;BME280;31821;51.880;-0.518;2022-12-16T02:57:44;100669.50;;;-3.00;58.13
46081;BME280;31821;51.880;-0.518;2022-12-16T03:00:03;100745.41;;;-2.56;57.73
46081;BME280;31821;51.880;-0.518;2022-12-16T03:02:58;100737.72;;;-2.73;58.37
46081;BME280;31821;51.880;-0.518;2022-12-16T03:05:29;100746.03;;;-2.68;58.83
46081;BME280;31821;51.880;-0.518;2022-12-16T03:08:01;100747.50;;;-2.72;58.43
46081;BME280;31821;51.880;-0.518;2022-12-16T03:10:29;100696.88;;;-2.97;58.87
46081;BME280;31821;51.880;-0.518;2022-12-16T03:12:58;100756.84;;;-2.61;59.50
46081;BME280;31821;51.880;-0.518;2022-12-16T03:15:28;100742.50;;;-2.68;59.17
46081;BME280;31821;51.880;-0.518;2022-12-16T03:17:55;100728.44;;;-2.97;59.08
46081;BME280;31821;51.880;-0.518;2022-12-16T03:20:28;100723.47;;;-3.07;59.49
46081;BME280;31821;51.880;-0.518;2022-12-16T03:22:58;100750.81;;;-2.70;59.31
46081;BME280;31821;51.880;-0.518;2022-12-16T03:25:27;100689.03;;;-3.12;59.76
46081;BME280;31821;51.880;-0.518;2022-12-16T03:28:06;100684.25;;;-3.30;59.76
46081;BME280;31821;51.880;-0.518;2022-12-16T03:30:41;100747.09;;;-2.82;60.16
46081;BME280;31821;51.880;-0.518;2022-12-16T03:33:16;100746.50;;;-2.98;60.15
46081;BME280;31821;51.880;-0.518;2022-12-16T03:36:11;100760.19;;;-3.26;61.10
46081;BME280;31821;51.880;-0.518;2022-12-16T03:38:39;100769.75;;;-2.97;61.04
46081;BME280;31821;51.880;-0.518;2022-12-16T03:41:06;100735.06;;;-3.20;60.11
46081;BME280;31821;51.880;-0.518;2022-12-16T03:43:32;100715.53;;;-3.55;60.82
46081;BME280;31821;51.880;-0.518;2022-12-16T03:46:01;100760.00;;;-3.04;60.04
46081;BME280;31821;51.880;-0.518;2022-12-16T03:48:28;100669.31;;;-3.52;60.28
46081;BME280;31821;51.880;-0.518;2022-12-16T03:50:54;100768.50;;;-2.81;59.53
46081;BME280;31821;51.880;-0.518;2022-12-16T03:53:19;100732.38;;;-2.93;58.95
46081;BME280;31821;51.880;-0.518;2022-12-16T03:55:48;100739.03;;;-3.02;59.94
46081;BME280;31821;51.880;-0.518;2022-12-16T03:58:14;100764.72;;;-2.73;59.39
46081;BME280;31821;51.880;-0.518;2022-12-16T04:00:39;100741.91;;;-2.77;59.08
46081;BME280;31821;51.880;-0.518;2022-12-16T04:03:05;100710.97;;;-2.88;58.98
46081;BME280;31821;51.880;-0.518;2022-12-16T04:05:30;100740.66;;;-2.68;58.65
46081;BME280;31821;51.880;-0.518;2022-12-16T04:07:56;100770.31;;;-2.54;58.85
46081;BME280;31821;51.880;-0.518;2022-12-16T04:10:21;100754.09;;;-2.54;59.13
46081;BME280;31821;51.880;-0.518;2022-12-16T04:13:08;100765.75;;;-2.60;59.48
46081;BME280;31821;51.880;-0.518;2022-12-16T04:15:53;100630.94;;;-3.34;58.88
46081;BME280;31821;51.880;-0.518;2022-12-16T04:18:39;100716.16;;;-2.79;59.04
46081;BME280;31821;51.880;-0.518;2022-12-16T04:21:23;100736.31;;;-2.82;59.00
46081;BME280;31821;51.880;-0.518;2022-12-16T04:24:12;100756.66;;;-3.00;59.33
46081;BME280;31821;51.880;-0.518;2022-12-16T04:26:48;100685.06;;;-3.22;59.75
46081;BME280;31821;51.880;-0.518;2022-12-16T04:29:33;100778.44;;;-2.74;59.71
46081;BME280;31821;51.880;-0.518;2022-12-16T04:31:59;100758.53;;;-2.93;59.89
46081;BME280;31821;51.880;-0.518;2022-12-16T04:34:25;100750.41;;;-3.34;60.23
46081;BME280;31821;51.880;-0.518;2022-12-16T04:36:55;100716.59;;;-3.36;60.01
46081;BME280;31821;51.880;-0.518;2022-12-16T04:39:40;100730.50;;;-3.26;60.15
46081;BME280;31821;51.880;-0.518;2022-12-16T04:42:24;100696.25;;;-3.79;61.44
46081;BME280;31821;51.880;-0.518;2022-12-16T04:45:09;100787.19;;;-3.06;60.76
46081;BME280;31821;51.880;-0.518;2022-12-16T04:47:53;100752.72;;;-3.04;60.30
46081;BME280;31821;51.880;-0.518;2022-12-16T04:50:37;100780.75;;;-2.71;59.53
46081;BME280;31821;51.880;-0.518;2022-12-16T04:53:22;100792.97;;;-2.75;60.04
46081;BME280;31821;51.880;-0.518;2022-12-16T04:56:07;100771.78;;;-3.39;59.94
46081;BME280;31821;51.880;-0.518;2022-12-16T04:58:51;100788.16;;;-3.40;60.11
46081;BME280;31821;51.880;-0.518;2022-12-16T05:01:35;100762.88;;;-3.46;60.22
46081;BME280;31821;51.880;-0.518;2022-12-16T05:04:19;100788.00;;;-3.12;59.60
46081;BME280;31821;51.880;-0.518;2022-12-16T05:07:04;100788.81;;;-3.05;59.14
46081;BME280;31821;51.880;-0.518;2022-12-16T05:09:48;100722.00;;;-3.43;59.25
46081;BME280;31821;51.880;-0.518;2022-12-16T05:12:32;100802.34;;;-2.91;59.03
46081;BME280;31821;51.880;-0.518;2022-12-16T05:15:16;100747.53;;;-3.19;58.69
46081;BME280;31821;51.880;-0.518;2022-12-16T05:18:11;100783.44;;;-2.98;58.61
46081;BME280;31821;51.880;-0.518;2022-12-16T05:20:57;100754.59;;;-3.11;58.86
46081;BME280;31821;51.880;-0.518;2022-12-16T05:23:41;100774.94;;;-2.88;58.82
46081;BME280;31821;51.880;-0.518;2022-12-16T05:26:25;100782.81;;;-2.87;59.22
46081;BME280;31821;51.880;-0.518;2022-12-16T05:29:09;100769.94;;;-2.85;59.37
46081;BME280;31821;51.880;-0.518;2022-12-16T05:31:53;100737.59;;;-3.12;59.45
46081;BME280;31821;51.880;-0.518;2022-12-16T05:34:37;100797.13;;;-3.06;59.37
46081;BME280;31821;51.880;-0.518;2022-12-16T05:37:22;100749.19;;;-3.38;58.72
46081;BME280;31821;51.880;-0.518;2022-12-16T05:40:08;100802.53;;;-3.00;59.31
46081;BME280;31821;51.880;-0.518;2022-12-16T05:42:52;100810.34;;;-3.45;60.37
46081;BME280;31821;51.880;-0.518;2022-12-16T05:45:36;100780.31;;;-3.35;59.74
46081;BME280;31821;51.880;-0.518;2022-12-16T05:48:20;100813.13;;;-3.18;59.71
46081;BME280;31821;51.880;-0.518;2022-12-16T05:51:04;100762.88;;;-3.46;60.07
46081;BME280;31821;51.880;-0.518;2022-12-16T05:53:48;100812.28;;;-3.32;60.02
46081;BME280;31821;51.880;-0.518;2022-12-16T05:56:32;100831.75;;;-3.37;60.39
46081;BME280;31821;51.880;-0.518;2022-12-16T05:59:16;100795.44;;;-3.41;60.22
46081;BME280;31821;51.880;-0.518;2022-12-16T06:02:00;100738.22;;;-4.05;60.59
46081;BME280;31821;51.880;-0.518;2022-12-16T06:04:44;100804.88;;;-3.72;60.93
46081;BME280;31821;51.880;-0.518;2022-12-16T06:07:28;100807.91;;;-3.95;61.60
46081;BME280;31821;51.880;-0.518;2022-12-16T06:10:12;100836.09;;;-3.98;61.96
46081;BME280;31821;51.880;-0.518;2022-12-16T06:12:56;100835.81;;;-3.68;62.06
46081;BME280;31821;51.880;-0.518;2022-12-16T06:15:40;100813.63;;;-4.12;62.20
46081;BME280;31821;51.880;-0.518;2022-12-16T06:18:24;100838.09;;;-3.65;61.84
46081;BME280;31821;51.880;-0.518;2022-12-16T06:21:08;100839.09;;;-3.79;62.36
46081;BME280;31821;51.880;-0.518;2022-12-16T06:23:52;100825.50;;;-3.44;61.33
46081;BME280;31821;51.880;-0.518;2022-12-16T06:26:36;100815.38;;;-3.29;60.85
46081;BME280;31821;51.880;-0.518;2022-12-16T06:29:22;100850.66;;;-3.17;60.22
46081;BME280;31821;51.880;-0.518;2022-12-16T06:32:06;100839.69;;;-3.22;60.27
46081;BME280;31821;51.880;-0.518;2022-12-16T06:34:50;100851.72;;;-3.11;60.07
46081;BME280;31821;51.880;-0.518;2022-12-16T06:37:34;100800.44;;;-3.31;59.63
46081;BME280;31821;51.880;-0.518;2022-12-16T06:40:18;100818.06;;;-3.35;59.83
46081;BME280;31821;51.880;-0.518;2022-12-16T06:43:02;100862.53;;;-2.98;59.31
46081;BME280;31821;51.880;-0.518;2022-12-16T06:45:49;100853.72;;;-3.40;59.45
46081;BME280;31821;51.880;-0.518;2022-12-16T06:48:33;100837.94;;;-3.43;59.99
46081;BME280;31821;51.880;-0.518;2022-12-16T06:51:17;100847.75;;;-3.29;60.16
46081;BME280;31821;51.880;-0.518;2022-12-16T06:54:01;100865.00;;;-3.23;59.55
46081;BME280;31821;51.880;-0.518;2022-12-16T06:56:45;100834.00;;;-3.47;59.69
46081;BME280;31821;51.880;-0.518;2022-12-16T06:59:30;100814.09;;;-3.53;59.45
46081;BME280;31821;51.880;-0.518;2022-12-16T07:02:14;100873.69;;;-3.14;58.71
46081;BME280;31821;51.880;-0.518;2022-12-16T07:04:58;100784.13;;;-3.85;59.52
46081;BME280;31821;51.880;-0.518;2022-12-16T07:07:48;100887.00;;;-3.19;59.00
46081;BME280;31821;51.880;-0.518;2022-12-16T07:10:33;100887.00;;;-3.19;59.26
46081;BME280;31821;51.880;-0.518;2022-12-16T07:13:17;100878.44;;;-3.36;59.21
46081;BME280;31821;51.880;-0.518;2022-12-16T07:16:01;100863.28;;;-3.37;59.13
46081;BME280;31821;51.880;-0.518;2022-12-16T07:18:45;100880.31;;;-3.30;59.17
46081;BME280;31821;51.880;-0.518;2022-12-16T07:21:30;100874.47;;;-3.34;58.87
46081;BME280;31821;51.880;-0.518;2022-12-16T07:24:14;100853.94;;;-3.41;59.17
46081;BME280;31821;51.880;-0.518;2022-12-16T07:26:58;100892.16;;;-3.24;58.93
46081;BME280;31821;51.880;-0.518;2022-12-16T07:29:42;100896.22;;;-3.49;58.63
46081;BME280;31821;51.880;-0.518;2022-12-16T07:32:26;100805.88;;;-3.86;58.99
46081;BME280;31821;51.880;-0.518;2022-12-16T07:35:10;100901.28;;;-3.32;59.72
46081;BME280;31821;51.880;-0.518;2022-12-16T07:37:54;100867.28;;;-3.75;59.02
46081;BME280;31821;51.880;-0.518;2022-12-16T07:40:38;100902.50;;;-3.35;58.86
46081;BME280;31821;51.880;-0.518;2022-12-16T07:43:22;100882.53;;;-3.54;58.94
46081;BME280;31821;51.880;-0.518;2022-12-16T07:46:07;100922.84;;;-3.25;58.54
46081;BME280;31821;51.880;-0.518;2022-12-16T07:48:51;100888.41;;;-3.37;58.72
46081;BME280;31821;51.880;-0.518;2022-12-16T07:51:35;100876.34;;;-3.41;58.57
46081;BME280;31821;51.880;-0.518;2022-12-16T07:54:19;100911.03;;;-3.31;58.64
46081;BME280;31821;51.880;-0.518;2022-12-16T07:57:03;100894.97;;;-3.53;58.22
46081;BME280;31821;51.880;-0.518;2022-12-16T07:59:47;100930.13;;;-3.26;58.57
46081;BME280;31821;51.880;-0.518;2022-12-16T08:02:31;100915.56;;;-3.32;57.94
46081;BME280;31821;51.880;-0.518;2022-12-16T08:05:15;100935.56;;;-3.19;58.59
46081;BME280;31821;51.880;-0.518;2022-12-16T08:07:59;100841.75;;;-3.86;58.50
46081;BME280;31821;51.880;-0.518;2022-12-16T08:10:43;100928.50;;;-3.69;58.42
46081;BME280;31821;51.880;-0.518;2022-12-16T08:13:27;100855.56;;;-4.02;58.42
46081;BME280;31821;51.880;-0.518;2022-12-16T08:16:11;100953.53;;;-3.75;58.75
46081;BME280;31821;51.880;-0.518;2022-12-16T08:18:55;100931.75;;;-3.80;58.93
46081;BME280;31821;51.880;-0.518;2022-12-16T08:21:40;100929.31;;;-3.68;58.69
46081;BME280;31821;51.880;-0.518;2022-12-16T08:24:23;100942.78;;;-3.68;58.48
46081;BME280;31821;51.880;-0.518;2022-12-16T08:27:07;100943.22;;;-3.71;58.76
46081;BME280;31821;51.880;-0.518;2022-12-16T08:29:51;100952.19;;;-3.57;58.50
46081;BME280;31821;51.880;-0.518;2022-12-16T08:32:36;100943.75;;;-3.41;58.42
46081;BME280;31821;51.880;-0.518;2022-12-16T08:35:19;100904.00;;;-4.09;59.21
46081;BME280;31821;51.880;-0.518;2022-12-16T08:38:04;100945.59;;;-3.48;58.14
46081;BME280;31821;51.880;-0.518;2022-12-16T08:40:54;100920.38;;;-3.76;58.60
46081;BME280;31821;51.880;-0.518;2022-12-16T08:43:38;100913.88;;;-3.88;59.17
46081;BME280;31821;51.880;-0.518;2022-12-16T08:46:22;100944.50;;;-3.61;58.72
46081;BME280;31821;51.880;-0.518;2022-12-16T08:49:06;100956.09;;;-3.60;58.41
46081;BME280;31821;51.880;-0.518;2022-12-16T08:51:51;100954.28;;;-3.88;58.94
46081;BME280;31821;51.880;-0.518;2022-12-16T08:54:35;100964.97;;;-4.01;59.51
46081;BME280;31821;51.880;-0.518;2022-12-16T08:57:19;100924.38;;;-4.28;60.18
46081;BME280;31821;51.880;-0.518;2022-12-16T09:00:04;100921.84;;;-4.01;59.56
46081;BME280;31821;51.880;-0.518;2022-12-16T09:02:58;100922.72;;;-3.59;58.65
46081;BME280;31821;51.880;-0.518;2022-12-16T09:05:43;100988.19;;;-3.37;58.49
46081;BME280;31821;51.880;-0.518;2022-12-16T09:08:28;100962.59;;;-3.48;58.79
46081;BME280;31821;51.880;-0.518;2022-12-16T09:11:12;100980.09;;;-3.30;58.71
46081;BME280;31821;51.880;-0.518;2022-12-16T09:13:57;100970.22;;;-3.16;58.15
46081;BME280;31821;51.880;-0.518;2022-12-16T09:16:42;100969.88;;;-2.93;58.41
46081;BME280;31821;51.880;-0.518;2022-12-16T09:19:26;100942.47;;;-2.97;57.45
46081;BME280;31821;51.880;-0.518;2022-12-16T09:22:10;100938.31;;;-2.92;56.77
46081;BME280;31821;51.880;-0.518;2022-12-16T09:24:54;100936.25;;;-2.84;57.63
46081;BME280;31821;51.880;-0.518;2022-12-16T09:27:38;100979.31;;;-2.62;57.91
46081;BME280;31821;51.880;-0.518;2022-12-16T09:30:23;100992.00;;;-2.42;57.13
46081;BME280;31821;51.880;-0.518;2022-12-16T09:33:07;100985.56;;;-2.48;57.02
46081;BME280;31821;51.880;-0.518;2022-12-16T09:35:51;100930.06;;;-2.64;56.35
46081;BME280;31821;51.880;-0.518;2022-12-16T09:38:40;100991.81;;;-2.27;55.99
46081;BME280;31821;51.880;-0.518;2022-12-16T09:41:27;100991.38;;;-2.04;56.30
46081;BME280;31821;51.880;-0.518;2022-12-16T09:44:25;100950.63;;;-1.96;56.33
46081;BME280;31821;51.880;-0.518;2022-12-16T09:47:38;100998.38;;;-1.49;55.67
46081;BME280;31821;51.880;-0.518;2022-12-16T09:50:30;100983.13;;;-1.37;55.88
46081;BME280;31821;51.880;-0.518;2022-12-16T09:53:19;100951.16;;;-1.53;55.01
46081;BME280;31821;51.880;-0.518;2022-12-16T09:56:06;101003.56;;;-1.34;54.73
46081;BME280;31821;51.880;-0.518;2022-12-16T09:58:58;100992.41;;;-1.78;55.48
46081;BME280;31821;51.880;-0.518;2022-12-16T10:01:44;100997.75;;;-1.45;55.29
46081;BME280;31821;51.880;-0.518;2022-12-16T10:04:29;100962.34;;;-1.43;54.82
46081;BME280;31821;51.880;-0.518;2022-12-16T10:07:20;101013.09;;;-1.32;54.90
46081;BME280;31821;51.880;-0.518;2022-12-16T10:13:57;101010.75;;;-1.15;53.94
46081;BME280;31821;51.880;-0.518;2022-12-16T10:25:50;101003.09;;;-0.72;52.73
46081;BME280;31821;51.880;-0.518;2022-12-16T10:28:48;101002.31;;;-0.54;52.42
46081;BME280;31821;51.880;-0.518;2022-12-16T10:31:35;100990.00;;;-0.18;53.46
46081;BME280;31821;51.880;-0.518;2022-12-16T10:34:25;100929.50;;;-0.19;52.82
46081;BME280;31821;51.880;-0.518;2022-12-16T10:40:26;100885.44;;;-0.83;50.97
46081;BME280;31821;51.880;-0.518;2022-12-16T10:43:17;100946.97;;;0.11;50.85
46081;BME280;31821;51.880;-0.518;2022-12-16T10:46:11;100942.53;;;-0.02;49.60
46081;BME280;31821;51.880;-0.518;2022-12-16T10:48:57;100833.63;;;-0.43;49.61
46081;BME280;31821;51.880;-0.518;2022-12-16T10:51:41;101024.59;;;1.42;49.81
46081;BME280;31821;51.880;-0.518;2022-12-16T11:01:00;100943.59;;;1.20;47.12
46081;BME280;31821;51.880;-0.518;2022-12-16T11:03:46;101012.69;;;1.97;48.50
46081;BME280;31821;51.880;-0.518;2022-12-16T11:09:21;100987.03;;;2.41;48.47
46081;BME280;31821;51.880;-0.518;2022-12-16T11:12:25;100994.16;;;2.94;45.16
46081;BME280;31821;51.880;-0.518;2022-12-16T11:15:19;100990.81;;;3.33;46.22
46081;BME280;31821;51.880;-0.518;2022-12-16T11:21:15;100873.41;;;3.91;43.59
46081;BME280;31821;51.880;-0.518;2022-12-16T11:24:20;100950.75;;;4.80;42.82
46081;BME280;31821;51.880;-0.518;2022-12-16T11:27:20;100976.97;;;5.53;42.18
46081;BME280;31821;51.880;-0.518;2022-12-16T11:30:24;100974.81;;;5.88;38.77
46081;BME280;31821;51.880;-0.518;2022-12-16T11:33:20;100970.19;;;6.31;40.41
46081;BME280;31821;51.880;-0.518;2022-12-16T11:36:13;100964.25;;;6.40;39.86
46081;BME280;31821;51.880;-0.518;2022-12-16T11:38:58;100974.22;;;6.13;40.17
46081;BME280;31821;51.880;-0.518;2022-12-16T11:41:47;100978.31;;;6.59;37.92
46081;BME280;31821;51.880;-0.518;2022-12-16T11:44:35;100972.53;;;6.55;36.36
46081;BME280;31821;51.880;-0.518;2022-12-16T11:50:23;100963.47;;;7.18;36.29
46081;BME280;31821;51.880;-0.518;2022-12-16T11:56:30;100966.34;;;6.75;38.51
46081;BME280;31821;51.880;-0.518;2022-12-16T12:02:37;100950.06;;;7.27;38.12
46081;BME280;31821;51.880;-0.518;2022-12-16T12:11:51;100939.06;;;7.17;37.16
46081;BME280;31821;51.880;-0.518;2022-12-16T12:14:48;100968.19;;;7.59;37.24
46081;BME280;31821;51.880;-0.518;2022-12-16T12:17:44;100878.38;;;6.18;38.61
46081;BME280;31821;51.880;-0.518;2022-12-16T12:20:49;100923.56;;;6.69;39.10
46081;BME280;31821;51.880;-0.518;2022-12-16T12:23:52;100963.19;;;7.20;37.16
46081;BME280;31821;51.880;-0.518;2022-12-16T12:26:43;100954.47;;;7.43;38.47
46081;BME280;31821;51.880;-0.518;2022-12-16T12:36:24;100957.78;;;7.92;38.25
46081;BME280;31821;51.880;-0.518;2022-12-16T12:39:21;100955.28;;;8.06;36.82
46081;BME280;31821;51.880;-0.518;2022-12-16T12:45:20;100962.72;;;7.80;37.99
46081;BME280;31821;51.880;-0.518;2022-12-16T12:48:39;100942.41;;;7.60;39.09
46081;BME280;31821;51.880;-0.518;2022-12-16T12:57:44;100950.38;;;7.41;40.65
46081;BME280;31821;51.880;-0.518;2022-12-16T13:00:32;100952.28;;;7.56;39.36
46081;BME280;31821;51.880;-0.518;2022-12-16T13:06:15;100965.22;;;6.66;40.74
46081;BME280;31821;51.880;-0.518;2022-12-16T13:09:00;100973.16;;;6.73;39.71
46081;BME280;31821;51.880;-0.518;2022-12-16T13:20:48;100955.66;;;6.79;41.23
46081;BME280;31821;51.880;-0.518;2022-12-16T13:23:35;100960.63;;;6.87;43.20
46081;BME280;31821;51.880;-0.518;2022-12-16T13:26:22;100962.81;;;6.85;42.45
46081;BME280;31821;51.880;-0.518;2022-12-16T13:29:23;100953.41;;;6.65;42.80
46081;BME280;31821;51.880;-0.518;2022-12-16T13:32:20;100952.59;;;6.65;42.17
46081;BME280;31821;51.880;-0.518;2022-12-16T13:38:17;100946.78;;;6.56;42.33
46081;BME280;31821;51.880;-0.518;2022-12-16T13:41:05;100882.06;;;5.97;42.64
46081;BME280;31821;51.880;-0.518;2022-12-16T13:46:48;100797.41;;;5.04;43.71
46081;BME280;31821;51.880;-0.518;2022-12-16T13:58:47;100928.75;;;5.20;45.29
46081;BME280;31821;51.880;-0.518;2022-12-16T14:01:49;100945.72;;;4.72;46.32
46081;BME280;31821;51.880;-0.518;2022-12-16T14:04:38;100980.13;;;4.90;46.55
46081;BME280;31821;51.880;-0.518;2022-12-16T14:07:24;100881.31;;;4.32;47.71
46081;BME280;31821;51.880;-0.518;2022-12-16T14:16:10;100984.00;;;4.33;48.54
46081;BME280;31821;51.880;-0.518;2022-12-16T14:22:29;100982.28;;;4.27;49.60
46081;BME280;31821;51.880;-0.518;2022-12-16T14:25:20;100980.00;;;4.01;50.00
46081;BME280;31821;51.880;-0.518;2022-12-16T14:28:19;100989.41;;;3.77;51.34
46081;BME280;31821;51.880;-0.518;2022-12-16T14:31:14;100969.44;;;3.42;52.00
46081;BME280;31821;51.880;-0.518;2022-12-16T14:34:01;100939.88;;;3.05;51.90
46081;BME280;31821;51.880;-0.518;2022-12-16T14:36:46;100953.38;;;3.00;52.48
46081;BME280;31821;51.880;-0.518;2022-12-16T14:39:51;101027.16;;;3.10;53.18
46081;BME280;31821;51.880;-0.518;2022-12-16T14:42:38;100994.72;;;2.97;53.43
46081;BME280;31821;51.880;-0.518;2022-12-16T14:45:37;100993.00;;;2.78;54.36
46081;BME280;31821;51.880;-0.518;2022-12-16T14:48:27;100972.88;;;2.68;53.77
46081;BME280;31821;51.880;-0.518;2022-12-16T14:51:36;101001.91;;;2.74;54.73
46081;BME280;31821;51.880;-0.518;2022-12-16T14:54:23;101012.03;;;2.90;54.00
46081;BME280;31821;51.880;-0.518;2022-12-16T15:00:20;101018.84;;;2.64;54.14
46081;BME280;31821;51.880;-0.518;2022-12-16T15:06:05;101015.75;;;2.84;53.46
46081;BME280;31821;51.880;-0.518;2022-12-16T15:08:55;101004.13;;;2.77;53.94
46081;BME280;31821;51.880;-0.518;2022-12-16T15:11:51;100975.88;;;2.42;53.77
46081;BME280;31821;51.880;-0.518;2022-12-16T15:14:38;101043.69;;;2.32;55.57
46081;BME280;31821;51.880;-0.518;2022-12-16T15:17:28;101037.66;;;2.54;55.20
46081;BME280;31821;51.880;-0.518;2022-12-16T15:20:21;101021.81;;;2.51;54.81
46081;BME280;31821;51.880;-0.518;2022-12-16T15:23:33;101045.03;;;2.53;55.23
46081;BME280;31821;51.880;-0.518;2022-12-16T15:26:26;101031.63;;;2.52;54.68
46081;BME280;31821;51.880;-0.518;2022-12-16T15:29:40;101036.34;;;2.56;54.06
46081;BME280;31821;51.880;-0.518;2022-12-16T15:41:16;101026.41;;;2.14;54.10
46081;BME280;31821;51.880;-0.518;2022-12-16T15:44:02;100975.66;;;1.73;53.77
46081;BME280;31821;51.880;-0.518;2022-12-16T15:46:47;101033.00;;;1.83;54.63
46081;BME280;31821;51.880;-0.518;2022-12-16T15:49:46;101036.63;;;1.77;54.76
46081;BME280;31821;51.880;-0.518;2022-12-16T15:52:39;101041.03;;;1.78;55.34
46081;BME280;31821;51.880;-0.518;2022-12-16T15:55:39;101059.69;;;1.74;55.00
46081;BME280;31821;51.880;-0.518;2022-12-16T15:58:25;101020.69;;;0.89;57.38
46081;BME280;31821;51.880;-0.518;2022-12-16T16:01:10;101079.97;;;0.48;59.93
46081;BME280;31821;51.880;-0.518;2022-12-16T16:03:56;101052.72;;;0.18;61.35
46081;BME280;31821;51.880;-0.518;2022-12-16T16:06:44;101074.22;;;0.82;59.71
46081;BME280;31821;51.880;-0.518;2022-12-16T16:09:31;101038.84;;;0.70;58.66
46081;BME280;31821;51.880;-0.518;2022-12-16T16:12:18;101057.19;;;1.12;57.02
46081;BME280;31821;51.880;-0.518;2022-12-16T16:15:04;101044.38;;;1.00;57.42
46081;BME280;31821;51.880;-0.518;2022-12-16T16:18:00;101080.41;;;1.07;57.26